sensor_id;sensor_type;location;lat;lon;timestamp;P1;durP1;ratioP1;P2;durP2;ratioP2
12925;SDS011;6529;50.566;9.774;2022-08-19T00:00:06;18.48;;;15.65;;
12925;SDS011;6529;50.566;9.774;2022-08-19T00:02:34;18.60;;;16.25;;
12925;SDS011;6529;50.566;9.774;2022-08-19T00:05:00;19.13;;;16.17;;
12925;SDS011;6529;50.566;9.774;2022-08-19T00:07:26;19.23;;;16.42;;
12925;SDS011;6529;50.566;9.774;2022-08-19T00:09:51;20.08;;;15.70;;
12925;SDS011;6529;50.566;9.774;2022-08-19T00:12:17;18.73;;;16.10;;
12925;SDS011;6529;50.566;9.774;2022-08-19T00:14:42;20.95;;;17.15;;
12925;SDS011;6529;50.566;9.774;2022-08-19T00:17:08;19.75;;;16.30;;
12925;SDS011;6529;50.566;9.774;2022-08-19T00:19:35;18.80;;;15.45;;
12925;SDS011;6529;50.566;9.774;2022-08-19T00:22:02;19.45;;;16.27;;
12925;SDS011;6529;50.566;9.774;2022-08-19T00:24:28;19.08;;;15.95;;
12925;SDS011;6529;50.566;9.774;2022-08-19T00:26:54;21.08;;;17.42;;
12925;SDS011;6529;50.566;9.774;2022-08-19T00:29:22;21.95;;;17.73;;
12925;SDS011;6529;50.566;9.774;2022-08-19T00:31:49;18.85;;;15.95;;
12925;SDS011;6529;50.566;9.774;2022-08-19T00:34:18;18.27;;;15.25;;
12925;SDS011;6529;50.566;9.774;2022-08-19T00:36:43;19.20;;;16.08;;
12925;SDS011;6529;50.566;9.774;2022-08-19T00:39:09;22.15;;;17.00;;
12925;SDS011;6529;50.566;9.774;2022-08-19T00:41:35;20.88;;;17.13;;
12925;SDS011;6529;50.566;9.774;2022-08-19T00:44:04;20.40;;;16.90;;
12925;SDS011;6529;50.566;9.774;2022-08-19T00:46:32;20.08;;;17.02;;
12925;SDS011;6529;50.566;9.774;2022-08-19T00:49:00;20.50;;;17.17;;
12925;SDS011;6529;50.566;9.774;2022-08-19T00:51:34;18.95;;;16.08;;
12925;SDS011;6529;50.566;9.774;2022-08-19T00:54:01;17.50;;;15.00;;
12925;SDS011;6529;50.566;9.774;2022-08-19T00:56:28;18.88;;;15.88;;
12925;SDS011;6529;50.566;9.774;2022-08-19T00:58:56;20.63;;;16.85;;
12925;SDS011;6529;50.566;9.774;2022-08-19T01:01:23;19.55;;;16.70;;
12925;SDS011;6529;50.566;9.774;2022-08-19T01:03:49;20.88;;;16.50;;
12925;SDS011;6529;50.566;9.774;2022-08-19T01:06:15;20.80;;;15.80;;
12925;SDS011;6529;50.566;9.774;2022-08-19T01:08:41;17.33;;;15.27;;
12925;SDS011;6529;50.566;9.774;2022-08-19T01:11:07;17.73;;;15.20;;
12925;SDS011;6529;50.566;9.774;2022-08-19T01:13:33;19.38;;;15.88;;
12925;SDS011;6529;50.566;9.774;2022-08-19T01:16:02;20.13;;;16.20;;
12925;SDS011;6529;50.566;9.774;2022-08-19T01:18:29;19.38;;;15.60;;
12925;SDS011;6529;50.566;9.774;2022-08-19T01:20:58;17.58;;;15.35;;
12925;SDS011;6529;50.566;9.774;2022-08-19T01:23:30;18.65;;;15.85;;
12925;SDS011;6529;50.566;9.774;2022-08-19T01:26:09;18.08;;;16.08;;
12925;SDS011;6529;50.566;9.774;2022-08-19T01:28:38;18.75;;;15.57;;
12925;SDS011;6529;50.566;9.774;2022-08-19T01:31:05;20.80;;;16.98;;
12925;SDS011;6529;50.566;9.774;2022-08-19T01:33:37;18.05;;;14.32;;
12925;SDS011;6529;50.566;9.774;2022-08-19T01:36:26;18.42;;;14.77;;
12925;SDS011;6529;50.566;9.774;2022-08-19T01:38:50;19.48;;;15.80;;
12925;SDS011;6529;50.566;9.774;2022-08-19T01:41:17;19.20;;;16.30;;
12925;SDS011;6529;50.566;9.774;2022-08-19T01:43:43;21.88;;;16.77;;
12925;SDS011;6529;50.566;9.774;2022-08-19T01:46:09;17.63;;;14.45;;
12925;SDS011;6529;50.566;9.774;2022-08-19T01:48:36;18.65;;;15.52;;
12925;SDS011;6529;50.566;9.774;2022-08-19T01:51:05;17.65;;;14.75;;
12925;SDS011;6529;50.566;9.774;2022-08-19T01:53:31;19.48;;;16.10;;
12925;SDS011;6529;50.566;9.774;2022-08-19T01:55:57;18.48;;;16.02;;
12925;SDS011;6529;50.566;9.774;2022-08-19T01:58:24;18.52;;;15.82;;
12925;SDS011;6529;50.566;9.774;2022-08-19T02:00:56;18.70;;;15.30;;
12925;SDS011;6529;50.566;9.774;2022-08-19T02:03:22;19.98;;;16.67;;
12925;SDS011;6529;50.566;9.774;2022-08-19T02:05:53;20.08;;;15.90;;
12925;SDS011;6529;50.566;9.774;2022-08-19T02:08:23;18.67;;;15.02;;
12925;SDS011;6529;50.566;9.774;2022-08-19T02:10:49;18.38;;;15.68;;
12925;SDS011;6529;50.566;9.774;2022-08-19T02:13:14;19.13;;;16.00;;
12925;SDS011;6529;50.566;9.774;2022-08-19T02:15:41;18.63;;;15.90;;
12925;SDS011;6529;50.566;9.774;2022-08-19T02:18:07;20.95;;;15.65;;
12925;SDS011;6529;50.566;9.774;2022-08-19T02:20:33;18.17;;;15.68;;
12925;SDS011;6529;50.566;9.774;2022-08-19T02:22:59;17.58;;;14.98;;
12925;SDS011;6529;50.566;9.774;2022-08-19T02:25:26;20.35;;;15.88;;
12925;SDS011;6529;50.566;9.774;2022-08-19T02:27:52;19.73;;;15.60;;
12925;SDS011;6529;50.566;9.774;2022-08-19T02:30:19;17.88;;;15.45;;
12925;SDS011;6529;50.566;9.774;2022-08-19T02:32:45;18.27;;;14.93;;
12925;SDS011;6529;50.566;9.774;2022-08-19T02:35:12;19.15;;;14.73;;
12925;SDS011;6529;50.566;9.774;2022-08-19T02:37:38;20.30;;;16.20;;
12925;SDS011;6529;50.566;9.774;2022-08-19T02:40:23;18.13;;;15.40;;
12925;SDS011;6529;50.566;9.774;2022-08-19T02:42:48;20.95;;;16.65;;
12925;SDS011;6529;50.566;9.774;2022-08-19T02:45:14;17.38;;;14.35;;
12925;SDS011;6529;50.566;9.774;2022-08-19T02:47:40;17.73;;;15.00;;
12925;SDS011;6529;50.566;9.774;2022-08-19T02:50:05;17.85;;;14.60;;
12925;SDS011;6529;50.566;9.774;2022-08-19T02:52:32;16.05;;;13.80;;
12925;SDS011;6529;50.566;9.774;2022-08-19T02:54:58;17.80;;;15.30;;
12925;SDS011;6529;50.566;9.774;2022-08-19T02:57:25;17.50;;;15.25;;
12925;SDS011;6529;50.566;9.774;2022-08-19T02:59:51;16.52;;;14.75;;
12925;SDS011;6529;50.566;9.774;2022-08-19T03:02:17;18.35;;;15.52;;
12925;SDS011;6529;50.566;9.774;2022-08-19T03:04:43;19.00;;;15.63;;
12925;SDS011;6529;50.566;9.774;2022-08-19T03:07:09;18.58;;;14.98;;
12925;SDS011;6529;50.566;9.774;2022-08-19T03:09:38;22.08;;;17.10;;
12925;SDS011;6529;50.566;9.774;2022-08-19T03:12:04;18.73;;;16.13;;
12925;SDS011;6529;50.566;9.774;2022-08-19T03:14:31;18.55;;;16.55;;
12925;SDS011;6529;50.566;9.774;2022-08-19T03:16:57;20.42;;;16.90;;
12925;SDS011;6529;50.566;9.774;2022-08-19T03:19:23;19.65;;;16.30;;
12925;SDS011;6529;50.566;9.774;2022-08-19T03:21:49;19.15;;;16.17;;
12925;SDS011;6529;50.566;9.774;2022-08-19T03:24:16;21.00;;;16.98;;
12925;SDS011;6529;50.566;9.774;2022-08-19T03:26:44;19.75;;;16.17;;
12925;SDS011;6529;50.566;9.774;2022-08-19T03:29:12;18.20;;;15.63;;
12925;SDS011;6529;50.566;9.774;2022-08-19T03:31:39;16.92;;;14.05;;
12925;SDS011;6529;50.566;9.774;2022-08-19T03:34:06;17.60;;;14.48;;
12925;SDS011;6529;50.566;9.774;2022-08-19T03:36:32;17.85;;;15.27;;
12925;SDS011;6529;50.566;9.774;2022-08-19T03:38:58;16.17;;;14.07;;
12925;SDS011;6529;50.566;9.774;2022-08-19T03:41:29;17.63;;;14.45;;
12925;SDS011;6529;50.566;9.774;2022-08-19T03:43:57;16.83;;;14.68;;
12925;SDS011;6529;50.566;9.774;2022-08-19T03:46:24;21.10;;;15.95;;
12925;SDS011;6529;50.566;9.774;2022-08-19T03:48:53;16.63;;;14.73;;
12925;SDS011;6529;50.566;9.774;2022-08-19T03:51:22;18.80;;;15.68;;
12925;SDS011;6529;50.566;9.774;2022-08-19T03:53:55;17.25;;;14.60;;
12925;SDS011;6529;50.566;9.774;2022-08-19T03:56:21;17.58;;;14.88;;
12925;SDS011;6529;50.566;9.774;2022-08-19T03:58:47;18.00;;;15.35;;
12925;SDS011;6529;50.566;9.774;2022-08-19T04:01:14;17.33;;;15.43;;
12925;SDS011;6529;50.566;9.774;2022-08-19T04:03:43;17.70;;;14.70;;
12925;SDS011;6529;50.566;9.774;2022-08-19T04:08:43;12.55;;;11.23;;
12925;SDS011;6529;50.566;9.774;2022-08-19T04:11:11;15.95;;;14.05;;
12925;SDS011;6529;50.566;9.774;2022-08-19T04:13:39;16.58;;;12.80;;
12925;SDS011;6529;50.566;9.774;2022-08-19T04:16:06;17.48;;;14.07;;
12925;SDS011;6529;50.566;9.774;2022-08-19T04:18:34;17.25;;;14.35;;
12925;SDS011;6529;50.566;9.774;2022-08-19T04:21:01;17.05;;;14.25;;
12925;SDS011;6529;50.566;9.774;2022-08-19T04:23:27;15.35;;;13.75;;
12925;SDS011;6529;50.566;9.774;2022-08-19T04:25:53;17.15;;;14.65;;
12925;SDS011;6529;50.566;9.774;2022-08-19T04:28:19;17.30;;;15.18;;
12925;SDS011;6529;50.566;9.774;2022-08-19T04:30:48;19.80;;;15.88;;
12925;SDS011;6529;50.566;9.774;2022-08-19T04:33:16;17.98;;;15.23;;
12925;SDS011;6529;50.566;9.774;2022-08-19T04:35:46;20.27;;;16.17;;
12925;SDS011;6529;50.566;9.774;2022-08-19T04:38:13;20.70;;;15.93;;
12925;SDS011;6529;50.566;9.774;2022-08-19T04:40:40;17.25;;;15.10;;
12925;SDS011;6529;50.566;9.774;2022-08-19T04:43:30;18.05;;;15.60;;
12925;SDS011;6529;50.566;9.774;2022-08-19T04:45:57;17.58;;;15.30;;
12925;SDS011;6529;50.566;9.774;2022-08-19T04:48:23;16.50;;;14.15;;
12925;SDS011;6529;50.566;9.774;2022-08-19T04:50:53;17.85;;;15.30;;
12925;SDS011;6529;50.566;9.774;2022-08-19T04:53:23;18.95;;;15.48;;
12925;SDS011;6529;50.566;9.774;2022-08-19T04:55:54;18.20;;;15.23;;
12925;SDS011;6529;50.566;9.774;2022-08-19T04:58:21;16.70;;;14.90;;
12925;SDS011;6529;50.566;9.774;2022-08-19T05:00:48;17.23;;;14.88;;
12925;SDS011;6529;50.566;9.774;2022-08-19T05:03:13;18.38;;;16.38;;
12925;SDS011;6529;50.566;9.774;2022-08-19T05:05:42;17.40;;;15.50;;
12925;SDS011;6529;50.566;9.774;2022-08-19T05:08:14;17.23;;;14.93;;
12925;SDS011;6529;50.566;9.774;2022-08-19T05:10:44;18.92;;;15.85;;
12925;SDS011;6529;50.566;9.774;2022-08-19T05:13:11;16.85;;;13.98;;
12925;SDS011;6529;50.566;9.774;2022-08-19T05:15:37;20.05;;;15.73;;
12925;SDS011;6529;50.566;9.774;2022-08-19T05:18:03;19.45;;;15.13;;
12925;SDS011;6529;50.566;9.774;2022-08-19T05:20:46;17.35;;;14.60;;
12925;SDS011;6529;50.566;9.774;2022-08-19T05:23:30;20.60;;;15.50;;
12925;SDS011;6529;50.566;9.774;2022-08-19T05:25:56;17.77;;;15.60;;
12925;SDS011;6529;50.566;9.774;2022-08-19T05:28:22;19.08;;;16.15;;
12925;SDS011;6529;50.566;9.774;2022-08-19T05:30:47;18.00;;;15.85;;
12925;SDS011;6529;50.566;9.774;2022-08-19T05:33:15;19.27;;;17.15;;
12925;SDS011;6529;50.566;9.774;2022-08-19T05:35:41;15.45;;;13.85;;
12925;SDS011;6529;50.566;9.774;2022-08-19T05:38:07;19.92;;;15.93;;
12925;SDS011;6529;50.566;9.774;2022-08-19T05:40:37;19.48;;;16.70;;
12925;SDS011;6529;50.566;9.774;2022-08-19T05:43:04;18.90;;;16.33;;
12925;SDS011;6529;50.566;9.774;2022-08-19T05:45:31;19.85;;;16.92;;
12925;SDS011;6529;50.566;9.774;2022-08-19T05:47:57;20.52;;;17.73;;
12925;SDS011;6529;50.566;9.774;2022-08-19T05:50:23;21.20;;;17.73;;
12925;SDS011;6529;50.566;9.774;2022-08-19T05:52:51;18.90;;;15.85;;
12925;SDS011;6529;50.566;9.774;2022-08-19T05:55:17;18.00;;;16.02;;
12925;SDS011;6529;50.566;9.774;2022-08-19T05:57:45;19.25;;;17.05;;
12925;SDS011;6529;50.566;9.774;2022-08-19T06:00:11;19.63;;;16.85;;
12925;SDS011;6529;50.566;9.774;2022-08-19T06:02:37;20.10;;;17.23;;
12925;SDS011;6529;50.566;9.774;2022-08-19T06:05:04;20.63;;;17.90;;
12925;SDS011;6529;50.566;9.774;2022-08-19T06:07:34;19.77;;;16.20;;
12925;SDS011;6529;50.566;9.774;2022-08-19T06:10:00;21.23;;;17.40;;
12925;SDS011;6529;50.566;9.774;2022-08-19T06:12:30;21.85;;;16.83;;
12925;SDS011;6529;50.566;9.774;2022-08-19T06:14:59;21.40;;;17.83;;
12925;SDS011;6529;50.566;9.774;2022-08-19T06:17:30;23.35;;;17.77;;
12925;SDS011;6529;50.566;9.774;2022-08-19T06:19:56;21.23;;;18.15;;
12925;SDS011;6529;50.566;9.774;2022-08-19T06:22:22;22.05;;;18.02;;
12925;SDS011;6529;50.566;9.774;2022-08-19T06:24:47;20.45;;;16.45;;
12925;SDS011;6529;50.566;9.774;2022-08-19T06:27:17;21.52;;;17.58;;
12925;SDS011;6529;50.566;9.774;2022-08-19T06:29:43;19.83;;;13.75;;
12925;SDS011;6529;50.566;9.774;2022-08-19T06:32:09;18.27;;;16.05;;
12925;SDS011;6529;50.566;9.774;2022-08-19T06:34:36;18.60;;;15.85;;
12925;SDS011;6529;50.566;9.774;2022-08-19T06:37:02;19.00;;;15.88;;
12925;SDS011;6529;50.566;9.774;2022-08-19T06:39:32;19.70;;;16.55;;
12925;SDS011;6529;50.566;9.774;2022-08-19T06:42:00;17.75;;;14.90;;
12925;SDS011;6529;50.566;9.774;2022-08-19T06:44:28;18.13;;;15.27;;
12925;SDS011;6529;50.566;9.774;2022-08-19T06:47:00;15.15;;;13.52;;
12925;SDS011;6529;50.566;9.774;2022-08-19T06:49:28;18.50;;;14.88;;
12925;SDS011;6529;50.566;9.774;2022-08-19T06:51:56;14.02;;;12.60;;
12925;SDS011;6529;50.566;9.774;2022-08-19T06:54:22;16.20;;;13.63;;
12925;SDS011;6529;50.566;9.774;2022-08-19T06:56:48;16.02;;;13.07;;
12925;SDS011;6529;50.566;9.774;2022-08-19T06:59:18;16.02;;;13.82;;
12925;SDS011;6529;50.566;9.774;2022-08-19T07:01:49;15.70;;;13.25;;
12925;SDS011;6529;50.566;9.774;2022-08-19T07:04:24;14.52;;;12.73;;
12925;SDS011;6529;50.566;9.774;2022-08-19T07:06:56;15.43;;;13.13;;
12925;SDS011;6529;50.566;9.774;2022-08-19T07:09:24;12.15;;;10.98;;
12925;SDS011;6529;50.566;9.774;2022-08-19T07:11:50;14.20;;;12.70;;
12925;SDS011;6529;50.566;9.774;2022-08-19T07:14:19;15.27;;;13.65;;
12925;SDS011;6529;50.566;9.774;2022-08-19T07:16:47;13.18;;;11.68;;
12925;SDS011;6529;50.566;9.774;2022-08-19T07:19:14;13.85;;;12.45;;
12925;SDS011;6529;50.566;9.774;2022-08-19T07:21:41;11.63;;;10.23;;
12925;SDS011;6529;50.566;9.774;2022-08-19T07:24:07;9.88;;;8.88;;
12925;SDS011;6529;50.566;9.774;2022-08-19T07:26:35;9.73;;;8.57;;
12925;SDS011;6529;50.566;9.774;2022-08-19T07:29:04;9.35;;;7.65;;
12925;SDS011;6529;50.566;9.774;2022-08-19T07:31:30;9.18;;;6.70;;
12925;SDS011;6529;50.566;9.774;2022-08-19T07:34:01;7.78;;;6.72;;
12925;SDS011;6529;50.566;9.774;2022-08-19T07:36:32;6.45;;;5.85;;
12925;SDS011;6529;50.566;9.774;2022-08-19T07:38:59;7.32;;;5.78;;
12925;SDS011;6529;50.566;9.774;2022-08-19T07:41:28;5.60;;;5.10;;
12925;SDS011;6529;50.566;9.774;2022-08-19T07:43:55;6.03;;;5.40;;
12925;SDS011;6529;50.566;9.774;2022-08-19T07:46:21;5.18;;;4.78;;
12925;SDS011;6529;50.566;9.774;2022-08-19T07:48:47;6.32;;;5.13;;
12925;SDS011;6529;50.566;9.774;2022-08-19T07:51:16;6.45;;;4.70;;
12925;SDS011;6529;50.566;9.774;2022-08-19T07:53:44;5.72;;;4.68;;
12925;SDS011;6529;50.566;9.774;2022-08-19T07:56:10;5.00;;;4.43;;
12925;SDS011;6529;50.566;9.774;2022-08-19T07:58:38;5.15;;;4.65;;
12925;SDS011;6529;50.566;9.774;2022-08-19T08:01:07;5.35;;;4.85;;
12925;SDS011;6529;50.566;9.774;2022-08-19T08:03:36;5.28;;;4.75;;
12925;SDS011;6529;50.566;9.774;2022-08-19T08:06:21;6.15;;;4.32;;
12925;SDS011;6529;50.566;9.774;2022-08-19T08:09:06;4.55;;;3.95;;
12925;SDS011;6529;50.566;9.774;2022-08-19T08:11:36;4.78;;;4.38;;
12925;SDS011;6529;50.566;9.774;2022-08-19T08:14:03;4.47;;;4.07;;
12925;SDS011;6529;50.566;9.774;2022-08-19T08:16:30;4.60;;;4.20;;
12925;SDS011;6529;50.566;9.774;2022-08-19T08:18:58;5.65;;;4.40;;
12925;SDS011;6529;50.566;9.774;2022-08-19T08:21:24;4.95;;;4.45;;
12925;SDS011;6529;50.566;9.774;2022-08-19T08:23:50;4.50;;;4.10;;
12925;SDS011;6529;50.566;9.774;2022-08-19T08:26:17;5.15;;;4.22;;
12925;SDS011;6529;50.566;9.774;2022-08-19T08:28:42;5.25;;;4.53;;
12925;SDS011;6529;50.566;9.774;2022-08-19T08:31:08;4.50;;;4.10;;
12925;SDS011;6529;50.566;9.774;2022-08-19T08:33:34;5.10;;;4.35;;
12925;SDS011;6529;50.566;9.774;2022-08-19T08:36:00;4.53;;;3.70;;
12925;SDS011;6529;50.566;9.774;2022-08-19T08:38:32;4.95;;;3.90;;
12925;SDS011;6529;50.566;9.774;2022-08-19T08:41:05;3.95;;;3.60;;
12925;SDS011;6529;50.566;9.774;2022-08-19T08:43:53;5.18;;;4.05;;
12925;SDS011;6529;50.566;9.774;2022-08-19T08:46:30;3.67;;;3.38;;
12925;SDS011;6529;50.566;9.774;2022-08-19T08:49:31;4.20;;;3.40;;
12925;SDS011;6529;50.566;9.774;2022-08-19T08:52:03;3.50;;;3.20;;
12925;SDS011;6529;50.566;9.774;2022-08-19T08:54:34;4.03;;;3.40;;
12925;SDS011;6529;50.566;9.774;2022-08-19T08:57:20;3.63;;;3.00;;
12925;SDS011;6529;50.566;9.774;2022-08-19T09:00:00;3.80;;;3.03;;
12925;SDS011;6529;50.566;9.774;2022-08-19T09:02:30;3.53;;;3.03;;
12925;SDS011;6529;50.566;9.774;2022-08-19T09:04:56;5.30;;;3.10;;
12925;SDS011;6529;50.566;9.774;2022-08-19T09:09:56;4.93;;;2.90;;
12925;SDS011;6529;50.566;9.774;2022-08-19T09:15:42;3.03;;;2.78;;
12925;SDS011;6529;50.566;9.774;2022-08-19T09:18:16;4.50;;;2.83;;
12925;SDS011;6529;50.566;9.774;2022-08-19T09:20:41;2.80;;;2.60;;
12925;SDS011;6529;50.566;9.774;2022-08-19T09:23:07;4.32;;;2.70;;
12925;SDS011;6529;50.566;9.774;2022-08-19T09:25:35;3.20;;;2.58;;
12925;SDS011;6529;50.566;9.774;2022-08-19T09:28:01;3.60;;;3.10;;
12925;SDS011;6529;50.566;9.774;2022-08-19T09:30:29;2.80;;;2.60;;
12925;SDS011;6529;50.566;9.774;2022-08-19T09:33:02;3.78;;;2.80;;
12925;SDS011;6529;50.566;9.774;2022-08-19T09:35:28;3.40;;;2.45;;
12925;SDS011;6529;50.566;9.774;2022-08-19T09:37:55;2.95;;;2.60;;
12925;SDS011;6529;50.566;9.774;2022-08-19T09:40:22;3.15;;;2.83;;
12925;SDS011;6529;50.566;9.774;2022-08-19T09:42:48;2.90;;;2.60;;
12925;SDS011;6529;50.566;9.774;2022-08-19T09:45:15;3.00;;;2.60;;
12925;SDS011;6529;50.566;9.774;2022-08-19T09:47:42;2.97;;;2.60;;
12925;SDS011;6529;50.566;9.774;2022-08-19T09:50:10;2.97;;;2.30;;
12925;SDS011;6529;50.566;9.774;2022-08-19T09:52:37;4.15;;;2.65;;
12925;SDS011;6529;50.566;9.774;2022-08-19T09:55:07;3.45;;;2.95;;
12925;SDS011;6529;50.566;9.774;2022-08-19T09:57:34;3.33;;;2.80;;
12925;SDS011;6529;50.566;9.774;2022-08-19T10:00:00;2.80;;;2.60;;
12925;SDS011;6529;50.566;9.774;2022-08-19T10:02:25;3.85;;;2.80;;
12925;SDS011;6529;50.566;9.774;2022-08-19T10:04:51;3.25;;;2.80;;
12925;SDS011;6529;50.566;9.774;2022-08-19T10:07:35;3.38;;;2.72;;
12925;SDS011;6529;50.566;9.774;2022-08-19T10:10:05;3.00;;;2.70;;
12925;SDS011;6529;50.566;9.774;2022-08-19T10:12:32;3.20;;;2.75;;
12925;SDS011;6529;50.566;9.774;2022-08-19T10:14:58;3.13;;;2.83;;
12925;SDS011;6529;50.566;9.774;2022-08-19T10:17:24;3.25;;;2.95;;
12925;SDS011;6529;50.566;9.774;2022-08-19T10:19:50;3.28;;;2.75;;
12925;SDS011;6529;50.566;9.774;2022-08-19T10:22:17;3.00;;;2.80;;
12925;SDS011;6529;50.566;9.774;2022-08-19T10:24:45;2.78;;;2.53;;
12925;SDS011;6529;50.566;9.774;2022-08-19T10:27:10;3.85;;;2.47;;
12925;SDS011;6529;50.566;9.774;2022-08-19T10:29:38;2.70;;;2.38;;
12925;SDS011;6529;50.566;9.774;2022-08-19T10:32:05;4.10;;;2.75;;
12925;SDS011;6529;50.566;9.774;2022-08-19T10:34:34;3.65;;;2.42;;
12925;SDS011;6529;50.566;9.774;2022-08-19T10:37:02;2.78;;;2.50;;
12925;SDS011;6529;50.566;9.774;2022-08-19T10:39:31;3.08;;;2.88;;
12925;SDS011;6529;50.566;9.774;2022-08-19T10:41:58;3.88;;;3.47;;
12925;SDS011;6529;50.566;9.774;2022-08-19T10:44:24;3.30;;;2.97;;
12925;SDS011;6529;50.566;9.774;2022-08-19T10:46:50;3.15;;;2.80;;
12925;SDS011;6529;50.566;9.774;2022-08-19T10:49:17;3.60;;;2.83;;
12925;SDS011;6529;50.566;9.774;2022-08-19T10:51:50;2.75;;;2.55;;
12925;SDS011;6529;50.566;9.774;2022-08-19T10:54:34;3.13;;;2.83;;
12925;SDS011;6529;50.566;9.774;2022-08-19T10:57:18;4.22;;;2.80;;
12925;SDS011;6529;50.566;9.774;2022-08-19T10:59:44;3.03;;;2.33;;
12925;SDS011;6529;50.566;9.774;2022-08-19T11:02:10;4.03;;;2.72;;
12925;SDS011;6529;50.566;9.774;2022-08-19T11:04:37;4.07;;;2.63;;
12925;SDS011;6529;50.566;9.774;2022-08-19T11:07:04;2.75;;;2.40;;
12925;SDS011;6529;50.566;9.774;2022-08-19T11:09:30;2.72;;;2.47;;
12925;SDS011;6529;50.566;9.774;2022-08-19T11:12:00;2.95;;;2.67;;
12925;SDS011;6529;50.566;9.774;2022-08-19T11:14:26;3.33;;;2.55;;
12925;SDS011;6529;50.566;9.774;2022-08-19T11:16:55;3.58;;;2.88;;
12925;SDS011;6529;50.566;9.774;2022-08-19T11:19:22;3.00;;;2.50;;
12925;SDS011;6529;50.566;9.774;2022-08-19T11:21:49;3.45;;;2.65;;
12925;SDS011;6529;50.566;9.774;2022-08-19T11:24:19;2.88;;;2.63;;
12925;SDS011;6529;50.566;9.774;2022-08-19T11:26:46;2.83;;;2.55;;
12925;SDS011;6529;50.566;9.774;2022-08-19T11:29:14;4.18;;;2.38;;
12925;SDS011;6529;50.566;9.774;2022-08-19T11:31:42;3.08;;;2.38;;
12925;SDS011;6529;50.566;9.774;2022-08-19T11:34:11;2.30;;;2.10;;
12925;SDS011;6529;50.566;9.774;2022-08-19T11:36:39;2.80;;;2.60;;
12925;SDS011;6529;50.566;9.774;2022-08-19T11:39:07;2.40;;;2.20;;
12925;SDS011;6529;50.566;9.774;2022-08-19T11:41:34;3.70;;;2.42;;
12925;SDS011;6529;50.566;9.774;2022-08-19T11:44:00;2.33;;;2.13;;
12925;SDS011;6529;50.566;9.774;2022-08-19T11:46:27;2.67;;;1.90;;
12925;SDS011;6529;50.566;9.774;2022-08-19T11:48:54;2.72;;;2.50;;
12925;SDS011;6529;50.566;9.774;2022-08-19T11:51:22;2.53;;;2.33;;
12925;SDS011;6529;50.566;9.774;2022-08-19T11:53:52;2.58;;;2.35;;
12925;SDS011;6529;50.566;9.774;2022-08-19T11:56:19;2.75;;;2.55;;
12925;SDS011;6529;50.566;9.774;2022-08-19T11:58:46;2.55;;;2.35;;
12925;SDS011;6529;50.566;9.774;2022-08-19T12:01:13;2.58;;;2.33;;
12925;SDS011;6529;50.566;9.774;2022-08-19T12:03:41;4.07;;;2.28;;
12925;SDS011;6529;50.566;9.774;2022-08-19T12:06:09;2.95;;;2.17;;
12925;SDS011;6529;50.566;9.774;2022-08-19T12:08:43;2.47;;;2.22;;
12925;SDS011;6529;50.566;9.774;2022-08-19T12:11:10;3.92;;;2.15;;
12925;SDS011;6529;50.566;9.774;2022-08-19T12:13:37;2.40;;;2.20;;
12925;SDS011;6529;50.566;9.774;2022-08-19T12:16:11;2.40;;;2.05;;
12925;SDS011;6529;50.566;9.774;2022-08-19T12:18:40;2.95;;;2.22;;
12925;SDS011;6529;50.566;9.774;2022-08-19T12:21:09;2.47;;;2.28;;
12925;SDS011;6529;50.566;9.774;2022-08-19T12:23:35;2.25;;;2.00;;
12925;SDS011;6529;50.566;9.774;2022-08-19T12:26:02;2.50;;;2.30;;
12925;SDS011;6529;50.566;9.774;2022-08-19T12:28:29;2.95;;;2.10;;
12925;SDS011;6529;50.566;9.774;2022-08-19T12:30:55;2.60;;;2.40;;
12925;SDS011;6529;50.566;9.774;2022-08-19T12:33:21;2.58;;;2.20;;
12925;SDS011;6529;50.566;9.774;2022-08-19T12:35:49;2.50;;;2.30;;
12925;SDS011;6529;50.566;9.774;2022-08-19T12:38:15;2.92;;;2.45;;
12925;SDS011;6529;50.566;9.774;2022-08-19T12:40:41;2.83;;;2.30;;
12925;SDS011;6529;50.566;9.774;2022-08-19T12:43:10;2.90;;;2.58;;
12925;SDS011;6529;50.566;9.774;2022-08-19T12:45:36;2.60;;;2.33;;
12925;SDS011;6529;50.566;9.774;2022-08-19T12:48:03;2.60;;;2.40;;
12925;SDS011;6529;50.566;9.774;2022-08-19T12:50:29;2.45;;;2.22;;
12925;SDS011;6529;50.566;9.774;2022-08-19T12:52:55;2.70;;;2.50;;
12925;SDS011;6529;50.566;9.774;2022-08-19T12:55:22;2.85;;;2.50;;
12925;SDS011;6529;50.566;9.774;2022-08-19T12:57:50;2.30;;;2.10;;
12925;SDS011;6529;50.566;9.774;2022-08-19T13:00:16;2.80;;;2.30;;
12925;SDS011;6529;50.566;9.774;2022-08-19T13:02:46;2.35;;;2.15;;
12925;SDS011;6529;50.566;9.774;2022-08-19T13:05:15;2.25;;;2.00;;
12925;SDS011;6529;50.566;9.774;2022-08-19T13:07:44;2.55;;;2.35;;
12925;SDS011;6529;50.566;9.774;2022-08-19T13:10:11;2.55;;;2.17;;
12925;SDS011;6529;50.566;9.774;2022-08-19T13:12:40;2.30;;;2.08;;
12925;SDS011;6529;50.566;9.774;2022-08-19T13:15:07;2.60;;;1.88;;
12925;SDS011;6529;50.566;9.774;2022-08-19T13:17:33;2.88;;;1.90;;
12925;SDS011;6529;50.566;9.774;2022-08-19T13:19:59;2.78;;;2.00;;
12925;SDS011;6529;50.566;9.774;2022-08-19T13:22:25;2.40;;;2.20;;
12925;SDS011;6529;50.566;9.774;2022-08-19T13:24:51;2.45;;;2.25;;
12925;SDS011;6529;50.566;9.774;2022-08-19T13:27:17;2.25;;;2.05;;
12925;SDS011;6529;50.566;9.774;2022-08-19T13:29:43;2.20;;;2.00;;
12925;SDS011;6529;50.566;9.774;2022-08-19T13:32:28;2.55;;;2.25;;
12925;SDS011;6529;50.566;9.774;2022-08-19T13:35:15;2.28;;;2.08;;
12925;SDS011;6529;50.566;9.774;2022-08-19T13:37:41;2.40;;;2.10;;
12925;SDS011;6529;50.566;9.774;2022-08-19T13:40:17;2.75;;;2.30;;
12925;SDS011;6529;50.566;9.774;2022-08-19T13:42:46;3.88;;;2.28;;
12925;SDS011;6529;50.566;9.774;2022-08-19T13:45:14;3.03;;;2.15;;
12925;SDS011;6529;50.566;9.774;2022-08-19T13:47:41;3.22;;;2.20;;
12925;SDS011;6529;50.566;9.774;2022-08-19T13:50:10;3.42;;;2.20;;
12925;SDS011;6529;50.566;9.774;2022-08-19T13:52:38;2.88;;;2.03;;
12925;SDS011;6529;50.566;9.774;2022-08-19T13:55:04;10.27;;;2.50;;
12925;SDS011;6529;50.566;9.774;2022-08-19T13:57:31;2.10;;;1.95;;
12925;SDS011;6529;50.566;9.774;2022-08-19T13:59:57;2.90;;;2.00;;
12925;SDS011;6529;50.566;9.774;2022-08-19T14:02:23;2.60;;;2.10;;
12925;SDS011;6529;50.566;9.774;2022-08-19T14:04:49;2.78;;;2.10;;
12925;SDS011;6529;50.566;9.774;2022-08-19T14:07:14;2.20;;;2.00;;
12925;SDS011;6529;50.566;9.774;2022-08-19T14:09:40;2.25;;;2.10;;
12925;SDS011;6529;50.566;9.774;2022-08-19T14:12:06;3.60;;;2.08;;
12925;SDS011;6529;50.566;9.774;2022-08-19T14:14:31;2.35;;;2.05;;
12925;SDS011;6529;50.566;9.774;2022-08-19T14:17:00;1.85;;;1.75;;
12925;SDS011;6529;50.566;9.774;2022-08-19T14:19:26;2.03;;;1.92;;
12925;SDS011;6529;50.566;9.774;2022-08-19T14:21:51;2.45;;;2.15;;
12925;SDS011;6529;50.566;9.774;2022-08-19T14:24:17;3.53;;;2.03;;
12925;SDS011;6529;50.566;9.774;2022-08-19T14:26:43;2.33;;;2.13;;
12925;SDS011;6529;50.566;9.774;2022-08-19T14:29:08;3.58;;;2.40;;
12925;SDS011;6529;50.566;9.774;2022-08-19T14:31:34;2.25;;;2.05;;
12925;SDS011;6529;50.566;9.774;2022-08-19T14:33:59;2.30;;;2.10;;
12925;SDS011;6529;50.566;9.774;2022-08-19T14:36:25;2.17;;;2.00;;
12925;SDS011;6529;50.566;9.774;2022-08-19T14:38:51;2.30;;;2.10;;
12925;SDS011;6529;50.566;9.774;2022-08-19T14:41:18;2.33;;;2.13;;
12925;SDS011;6529;50.566;9.774;2022-08-19T14:43:49;2.30;;;2.10;;
12925;SDS011;6529;50.566;9.774;2022-08-19T14:46:16;2.42;;;2.22;;
12925;SDS011;6529;50.566;9.774;2022-08-19T14:48:45;2.53;;;2.20;;
12925;SDS011;6529;50.566;9.774;2022-08-19T14:51:12;2.17;;;1.98;;
12925;SDS011;6529;50.566;9.774;2022-08-19T14:53:38;2.80;;;2.40;;
12925;SDS011;6529;50.566;9.774;2022-08-19T14:56:09;2.33;;;2.13;;
12925;SDS011;6529;50.566;9.774;2022-08-19T14:58:36;2.70;;;2.35;;
12925;SDS011;6529;50.566;9.774;2022-08-19T15:01:02;2.40;;;2.20;;